sensor_id;sensor_type;location;lat;lon;timestamp;P1;durP1;ratioP1;P2;durP2;ratioP2
8139;SDS011;4111;50.972;7.072;2022-12-20T00:01:17;2.97;;;2.30;;
8139;SDS011;4111;50.972;7.072;2022-12-20T00:03:47;2.20;;;2.00;;
8139;SDS011;4111;50.972;7.072;2022-12-20T00:06:16;2.83;;;2.50;;
8139;SDS011;4111;50.972;7.072;2022-12-20T00:08:42;2.37;;;2.00;;
8139;SDS011;4111;50.972;7.072;2022-12-20T00:11:08;2.90;;;1.93;;
8139;SDS011;4111;50.972;7.072;2022-12-20T00:13:36;2.10;;;1.90;;
8139;SDS011;4111;50.972;7.072;2022-12-20T00:16:22;2.40;;;2.13;;
8139;SDS011;4111;50.972;7.072;2022-12-20T00:18:51;3.17;;;2.00;;
8139;SDS011;4111;50.972;7.072;2022-12-20T00:21:19;2.63;;;1.90;;
8139;SDS011;4111;50.972;7.072;2022-12-20T00:23:45;2.50;;;2.03;;
8139;SDS011;4111;50.972;7.072;2022-12-20T00:26:13;3.20;;;2.20;;
8139;SDS011;4111;50.972;7.072;2022-12-20T00:28:42;3.40;;;2.33;;
8139;SDS011;4111;50.972;7.072;2022-12-20T00:31:09;2.57;;;2.37;;
8139;SDS011;4111;50.972;7.072;2022-12-20T00:33:37;7.93;;;2.23;;
8139;SDS011;4111;50.972;7.072;2022-12-20T00:36:05;2.77;;;2.40;;
8139;SDS011;4111;50.972;7.072;2022-12-20T00:38:33;2.37;;;2.17;;
8139;SDS011;4111;50.972;7.072;2022-12-20T00:41:04;3.43;;;2.40;;
8139;SDS011;4111;50.972;7.072;2022-12-20T00:43:31;2.30;;;2.10;;
8139;SDS011;4111;50.972;7.072;2022-12-20T00:45:58;3.93;;;2.17;;
8139;SDS011;4111;50.972;7.072;2022-12-20T00:48:25;2.90;;;2.10;;
8139;SDS011;4111;50.972;7.072;2022-12-20T00:50:57;2.90;;;2.20;;
8139;SDS011;4111;50.972;7.072;2022-12-20T00:53:43;2.83;;;2.40;;
8139;SDS011;4111;50.972;7.072;2022-12-20T00:56:10;3.30;;;2.33;;
8139;SDS011;4111;50.972;7.072;2022-12-20T00:58:37;5.73;;;2.63;;
8139;SDS011;4111;50.972;7.072;2022-12-20T01:01:13;4.03;;;2.53;;
8139;SDS011;4111;50.972;7.072;2022-12-20T01:03:45;2.83;;;2.27;;
8139;SDS011;4111;50.972;7.072;2022-12-20T01:06:12;2.63;;;2.30;;
8139;SDS011;4111;50.972;7.072;2022-12-20T01:08:38;2.63;;;2.20;;
8139;SDS011;4111;50.972;7.072;2022-12-20T01:11:12;4.67;;;2.70;;
8139;SDS011;4111;50.972;7.072;2022-12-20T01:13:42;3.20;;;2.80;;
8139;SDS011;4111;50.972;7.072;2022-12-20T01:16:17;3.67;;;2.63;;
8139;SDS011;4111;50.972;7.072;2022-12-20T01:18:46;2.53;;;2.30;;
8139;SDS011;4111;50.972;7.072;2022-12-20T01:21:13;3.90;;;2.20;;
8139;SDS011;4111;50.972;7.072;2022-12-20T01:23:41;2.63;;;2.40;;
8139;SDS011;4111;50.972;7.072;2022-12-20T01:26:10;2.73;;;2.53;;
8139;SDS011;4111;50.972;7.072;2022-12-20T01:28:39;3.37;;;2.87;;
8139;SDS011;4111;50.972;7.072;2022-12-20T01:31:08;3.53;;;2.73;;
8139;SDS011;4111;50.972;7.072;2022-12-20T01:33:36;4.13;;;2.87;;
8139;SDS011;4111;50.972;7.072;2022-12-20T01:36:05;3.73;;;3.10;;
8139;SDS011;4111;50.972;7.072;2022-12-20T01:38:33;6.37;;;2.70;;
8139;SDS011;4111;50.972;7.072;2022-12-20T01:41:01;3.40;;;3.10;;
8139;SDS011;4111;50.972;7.072;2022-12-20T01:43:44;4.63;;;3.00;;
8139;SDS011;4111;50.972;7.072;2022-12-20T01:46:11;5.33;;;2.93;;
8139;SDS011;4111;50.972;7.072;2022-12-20T01:48:37;3.73;;;3.10;;
8139;SDS011;4111;50.972;7.072;2022-12-20T01:51:05;3.13;;;2.87;;
8139;SDS011;4111;50.972;7.072;2022-12-20T01:53:32;3.73;;;3.07;;
8139;SDS011;4111;50.972;7.072;2022-12-20T01:55:58;4.43;;;3.10;;
8139;SDS011;4111;50.972;7.072;2022-12-20T01:58:30;5.67;;;3.87;;
8139;SDS011;4111;50.972;7.072;2022-12-20T02:00:58;4.70;;;3.97;;
8139;SDS011;4111;50.972;7.072;2022-12-20T02:03:25;6.07;;;3.27;;
8139;SDS011;4111;50.972;7.072;2022-12-20T02:05:52;3.40;;;3.10;;
8139;SDS011;4111;50.972;7.072;2022-12-20T02:08:18;4.70;;;3.30;;
8139;SDS011;4111;50.972;7.072;2022-12-20T02:10:54;7.03;;;3.77;;
8139;SDS011;4111;50.972;7.072;2022-12-20T02:16:08;4.07;;;3.37;;
8139;SDS011;4111;50.972;7.072;2022-12-20T02:18:38;3.67;;;3.37;;
8139;SDS011;4111;50.972;7.072;2022-12-20T02:26:40;3.97;;;3.60;;
8139;SDS011;4111;50.972;7.072;2022-12-20T02:29:36;4.93;;;3.57;;
8139;SDS011;4111;50.972;7.072;2022-12-20T02:32:13;5.23;;;3.83;;
8139;SDS011;4111;50.972;7.072;2022-12-20T02:34:58;4.77;;;3.97;;
8139;SDS011;4111;50.972;7.072;2022-12-20T02:37:25;4.30;;;3.90;;
8139;SDS011;4111;50.972;7.072;2022-12-20T02:39:51;4.97;;;3.90;;
8139;SDS011;4111;50.972;7.072;2022-12-20T02:42:19;5.20;;;4.20;;
8139;SDS011;4111;50.972;7.072;2022-12-20T02:44:50;4.00;;;3.60;;
8139;SDS011;4111;50.972;7.072;2022-12-20T02:47:58;6.83;;;3.90;;
8139;SDS011;4111;50.972;7.072;2022-12-20T02:50:42;6.93;;;3.60;;
8139;SDS011;4111;50.972;7.072;2022-12-20T02:53:15;5.13;;;4.33;;
8139;SDS011;4111;50.972;7.072;2022-12-20T03:01:20;6.40;;;3.83;;
8139;SDS011;4111;50.972;7.072;2022-12-20T03:03:52;5.07;;;3.63;;
8139;SDS011;4111;50.972;7.072;2022-12-20T03:06:20;6.37;;;3.73;;
8139;SDS011;4111;50.972;7.072;2022-12-20T03:08:46;5.93;;;3.57;;
8139;SDS011;4111;50.972;7.072;2022-12-20T03:11:13;4.33;;;3.97;;
8139;SDS011;4111;50.972;7.072;2022-12-20T03:13:40;4.07;;;3.63;;
8139;SDS011;4111;50.972;7.072;2022-12-20T03:16:06;8.83;;;4.20;;
8139;SDS011;4111;50.972;7.072;2022-12-20T03:18:34;5.43;;;3.93;;
8139;SDS011;4111;50.972;7.072;2022-12-20T03:21:00;5.77;;;3.90;;
8139;SDS011;4111;50.972;7.072;2022-12-20T03:23:27;5.50;;;4.50;;
8139;SDS011;4111;50.972;7.072;2022-12-20T03:25:53;5.93;;;3.80;;
8139;SDS011;4111;50.972;7.072;2022-12-20T03:28:20;6.17;;;3.87;;
8139;SDS011;4111;50.972;7.072;2022-12-20T03:30:46;8.33;;;3.80;;
8139;SDS011;4111;50.972;7.072;2022-12-20T03:33:13;5.37;;;3.63;;
8139;SDS011;4111;50.972;7.072;2022-12-20T03:35:39;4.00;;;3.60;;
8139;SDS011;4111;50.972;7.072;2022-12-20T03:38:06;4.43;;;3.80;;
8139;SDS011;4111;50.972;7.072;2022-12-20T03:40:33;4.40;;;4.00;;
8139;SDS011;4111;50.972;7.072;2022-12-20T03:42:59;3.80;;;3.50;;
8139;SDS011;4111;50.972;7.072;2022-12-20T03:45:25;4.83;;;3.17;;
8139;SDS011;4111;50.972;7.072;2022-12-20T03:47:52;4.83;;;3.83;;
8139;SDS011;4111;50.972;7.072;2022-12-20T03:50:18;4.87;;;3.23;;
8139;SDS011;4111;50.972;7.072;2022-12-20T03:52:45;5.10;;;4.17;;
8139;SDS011;4111;50.972;7.072;2022-12-20T03:55:11;4.17;;;3.40;;
8139;SDS011;4111;50.972;7.072;2022-12-20T03:57:38;3.87;;;3.47;;
8139;SDS011;4111;50.972;7.072;2022-12-20T04:00:05;5.07;;;3.57;;
8139;SDS011;4111;50.972;7.072;2022-12-20T04:02:32;3.80;;;3.43;;
8139;SDS011;4111;50.972;7.072;2022-12-20T04:04:58;4.30;;;3.80;;
8139;SDS011;4111;50.972;7.072;2022-12-20T04:07:25;4.67;;;3.43;;
8139;SDS011;4111;50.972;7.072;2022-12-20T04:09:51;4.53;;;3.50;;
8139;SDS011;4111;50.972;7.072;2022-12-20T04:12:18;4.77;;;3.50;;
8139;SDS011;4111;50.972;7.072;2022-12-20T04:14:44;6.00;;;3.53;;
8139;SDS011;4111;50.972;7.072;2022-12-20T04:17:10;5.00;;;3.30;;
8139;SDS011;4111;50.972;7.072;2022-12-20T04:19:37;6.07;;;3.67;;
8139;SDS011;4111;50.972;7.072;2022-12-20T04:22:03;5.47;;;3.23;;
8139;SDS011;4111;50.972;7.072;2022-12-20T04:24:31;6.17;;;4.00;;
8139;SDS011;4111;50.972;7.072;2022-12-20T04:26:58;4.70;;;3.70;;
8139;SDS011;4111;50.972;7.072;2022-12-20T04:29:24;5.00;;;3.70;;
8139;SDS011;4111;50.972;7.072;2022-12-20T04:31:51;5.90;;;3.97;;
8139;SDS011;4111;50.972;7.072;2022-12-20T04:34:17;10.20;;;4.27;;
8139;SDS011;4111;50.972;7.072;2022-12-20T04:36:44;4.60;;;4.20;;
8139;SDS011;4111;50.972;7.072;2022-12-20T04:39:10;6.77;;;3.83;;
8139;SDS011;4111;50.972;7.072;2022-12-20T04:41:37;7.33;;;4.50;;
8139;SDS011;4111;50.972;7.072;2022-12-20T04:44:03;8.03;;;4.03;;
8139;SDS011;4111;50.972;7.072;2022-12-20T04:46:30;5.63;;;3.70;;
8139;SDS011;4111;50.972;7.072;2022-12-20T04:48:56;8.10;;;4.60;;
8139;SDS011;4111;50.972;7.072;2022-12-20T04:51:25;4.37;;;3.97;;
8139;SDS011;4111;50.972;7.072;2022-12-20T04:53:52;6.87;;;4.70;;
8139;SDS011;4111;50.972;7.072;2022-12-20T04:56:24;7.07;;;4.10;;
8139;SDS011;4111;50.972;7.072;2022-12-20T04:58:53;5.30;;;4.00;;
8139;SDS011;4111;50.972;7.072;2022-12-20T05:01:22;5.33;;;4.77;;
8139;SDS011;4111;50.972;7.072;2022-12-20T05:03:48;8.57;;;4.77;;
8139;SDS011;4111;50.972;7.072;2022-12-20T05:06:15;10.37;;;4.43;;
8139;SDS011;4111;50.972;7.072;2022-12-20T05:08:42;6.80;;;4.77;;
8139;SDS011;4111;50.972;7.072;2022-12-20T05:11:09;6.03;;;4.47;;
8139;SDS011;4111;50.972;7.072;2022-12-20T05:13:36;6.07;;;4.80;;
8139;SDS011;4111;50.972;7.072;2022-12-20T05:16:03;5.77;;;3.90;;
8139;SDS011;4111;50.972;7.072;2022-12-20T05:18:30;5.17;;;4.10;;
8139;SDS011;4111;50.972;7.072;2022-12-20T05:20:57;11.07;;;4.70;;
8139;SDS011;4111;50.972;7.072;2022-12-20T05:23:43;5.57;;;4.50;;
8139;SDS011;4111;50.972;7.072;2022-12-20T05:26:30;5.07;;;4.50;;
8139;SDS011;4111;50.972;7.072;2022-12-20T05:28:58;6.50;;;4.37;;
8139;SDS011;4111;50.972;7.072;2022-12-20T05:31:25;5.07;;;4.47;;
8139;SDS011;4111;50.972;7.072;2022-12-20T05:33:51;7.37;;;4.20;;
8139;SDS011;4111;50.972;7.072;2022-12-20T05:36:19;7.13;;;4.17;;
8139;SDS011;4111;50.972;7.072;2022-12-20T05:38:46;5.67;;;3.83;;
8139;SDS011;4111;50.972;7.072;2022-12-20T05:41:12;5.30;;;4.53;;
8139;SDS011;4111;50.972;7.072;2022-12-20T05:43:39;6.97;;;4.60;;
8139;SDS011;4111;50.972;7.072;2022-12-20T05:46:05;5.43;;;4.07;;
8139;SDS011;4111;50.972;7.072;2022-12-20T05:48:32;5.43;;;4.00;;
8139;SDS011;4111;50.972;7.072;2022-12-20T05:50:59;6.43;;;4.13;;
8139;SDS011;4111;50.972;7.072;2022-12-20T05:53:26;4.23;;;3.93;;
8139;SDS011;4111;50.972;7.072;2022-12-20T05:55:53;7.27;;;4.20;;
8139;SDS011;4111;50.972;7.072;2022-12-20T05:58:19;7.53;;;4.10;;
8139;SDS011;4111;50.972;7.072;2022-12-20T06:00:46;6.50;;;4.10;;
8139;SDS011;4111;50.972;7.072;2022-12-20T06:03:13;8.10;;;4.50;;
8139;SDS011;4111;50.972;7.072;2022-12-20T06:05:43;7.83;;;4.50;;
8139;SDS011;4111;50.972;7.072;2022-12-20T06:08:10;5.00;;;4.03;;
8139;SDS011;4111;50.972;7.072;2022-12-20T06:10:37;4.30;;;3.90;;
8139;SDS011;4111;50.972;7.072;2022-12-20T06:13:06;7.33;;;4.40;;
8139;SDS011;4111;50.972;7.072;2022-12-20T06:15:37;6.20;;;3.50;;
8139;SDS011;4111;50.972;7.072;2022-12-20T06:18:04;5.47;;;3.83;;
8139;SDS011;4111;50.972;7.072;2022-12-20T06:20:31;7.63;;;4.03;;
8139;SDS011;4111;50.972;7.072;2022-12-20T06:22:59;6.57;;;3.77;;
8139;SDS011;4111;50.972;7.072;2022-12-20T06:25:27;5.00;;;3.97;;
8139;SDS011;4111;50.972;7.072;2022-12-20T06:27:54;5.30;;;3.87;;
8139;SDS011;4111;50.972;7.072;2022-12-20T06:30:21;6.87;;;4.07;;
8139;SDS011;4111;50.972;7.072;2022-12-20T06:32:49;5.60;;;3.63;;
8139;SDS011;4111;50.972;7.072;2022-12-20T06:35:16;4.93;;;3.80;;
8139;SDS011;4111;50.972;7.072;2022-12-20T06:37:42;4.47;;;3.60;;
8139;SDS011;4111;50.972;7.072;2022-12-20T06:40:10;4.50;;;4.10;;
8139;SDS011;4111;50.972;7.072;2022-12-20T06:42:38;5.90;;;3.77;;
8139;SDS011;4111;50.972;7.072;2022-12-20T06:45:05;4.80;;;3.60;;
8139;SDS011;4111;50.972;7.072;2022-12-20T06:47:32;7.03;;;3.93;;
8139;SDS011;4111;50.972;7.072;2022-12-20T06:49:58;4.13;;;3.77;;
8139;SDS011;4111;50.972;7.072;2022-12-20T06:52:24;4.70;;;4.20;;
8139;SDS011;4111;50.972;7.072;2022-12-20T06:54:51;5.03;;;3.70;;
8139;SDS011;4111;50.972;7.072;2022-12-20T06:57:17;4.33;;;3.60;;
8139;SDS011;4111;50.972;7.072;2022-12-20T06:59:44;6.37;;;4.27;;
8139;SDS011;4111;50.972;7.072;2022-12-20T07:02:11;7.47;;;4.57;;
8139;SDS011;4111;50.972;7.072;2022-12-20T07:04:38;4.50;;;3.97;;
8139;SDS011;4111;50.972;7.072;2022-12-20T07:07:05;5.03;;;4.20;;
8139;SDS011;4111;50.972;7.072;2022-12-20T07:09:31;5.13;;;3.63;;
8139;SDS011;4111;50.972;7.072;2022-12-20T07:11:58;4.67;;;3.93;;
8139;SDS011;4111;50.972;7.072;2022-12-20T07:14:25;4.37;;;3.63;;
8139;SDS011;4111;50.972;7.072;2022-12-20T07:16:51;4.77;;;4.10;;
8139;SDS011;4111;50.972;7.072;2022-12-20T07:19:18;4.80;;;3.70;;
8139;SDS011;4111;50.972;7.072;2022-12-20T07:21:45;4.60;;;3.80;;
8139;SDS011;4111;50.972;7.072;2022-12-20T07:24:12;4.70;;;4.17;;
8139;SDS011;4111;50.972;7.072;2022-12-20T07:26:38;4.00;;;3.70;;
8139;SDS011;4111;50.972;7.072;2022-12-20T07:29:05;4.47;;;3.67;;
8139;SDS011;4111;50.972;7.072;2022-12-20T07:31:38;5.30;;;3.57;;
8139;SDS011;4111;50.972;7.072;2022-12-20T07:34:05;5.53;;;3.93;;
8139;SDS011;4111;50.972;7.072;2022-12-20T07:36:31;4.43;;;3.33;;
8139;SDS011;4111;50.972;7.072;2022-12-20T07:38:58;5.00;;;3.83;;
8139;SDS011;4111;50.972;7.072;2022-12-20T07:41:24;4.90;;;3.77;;
8139;SDS011;4111;50.972;7.072;2022-12-20T07:43:50;3.80;;;3.27;;
8139;SDS011;4111;50.972;7.072;2022-12-20T07:46:17;5.30;;;3.33;;
8139;SDS011;4111;50.972;7.072;2022-12-20T07:48:44;3.53;;;3.23;;
8139;SDS011;4111;50.972;7.072;2022-12-20T07:51:12;3.63;;;2.93;;
8139;SDS011;4111;50.972;7.072;2022-12-20T07:53:51;3.33;;;3.00;;
8139;SDS011;4111;50.972;7.072;2022-12-20T07:56:27;7.53;;;3.43;;
8139;SDS011;4111;50.972;7.072;2022-12-20T07:59:02;4.40;;;3.67;;
8139;SDS011;4111;50.972;7.072;2022-12-20T08:01:29;7.80;;;3.17;;
8139;SDS011;4111;50.972;7.072;2022-12-20T08:04:01;4.83;;;3.40;;
8139;SDS011;4111;50.972;7.072;2022-12-20T08:06:31;4.33;;;3.50;;
8139;SDS011;4111;50.972;7.072;2022-12-20T08:08:59;4.13;;;3.40;;
8139;SDS011;4111;50.972;7.072;2022-12-20T08:11:29;5.30;;;3.23;;
8139;SDS011;4111;50.972;7.072;2022-12-20T08:13:58;6.93;;;3.40;;
8139;SDS011;4111;50.972;7.072;2022-12-20T08:16:24;4.83;;;3.17;;
8139;SDS011;4111;50.972;7.072;2022-12-20T08:18:51;4.73;;;3.30;;
8139;SDS011;4111;50.972;7.072;2022-12-20T08:21:17;7.07;;;3.57;;
8139;SDS011;4111;50.972;7.072;2022-12-20T08:23:44;4.03;;;3.63;;
8139;SDS011;4111;50.972;7.072;2022-12-20T08:26:10;4.77;;;3.30;;
8139;SDS011;4111;50.972;7.072;2022-12-20T08:28:37;6.07;;;3.80;;
8139;SDS011;4111;50.972;7.072;2022-12-20T08:31:04;4.80;;;4.27;;
8139;SDS011;4111;50.972;7.072;2022-12-20T08:33:32;5.47;;;3.50;;
8139;SDS011;4111;50.972;7.072;2022-12-20T08:36:01;5.13;;;3.73;;
8139;SDS011;4111;50.972;7.072;2022-12-20T08:38:29;5.83;;;3.40;;
8139;SDS011;4111;50.972;7.072;2022-12-20T08:41:03;3.87;;;3.27;;
8139;SDS011;4111;50.972;7.072;2022-12-20T08:43:32;3.77;;;3.40;;
8139;SDS011;4111;50.972;7.072;2022-12-20T08:45:59;4.17;;;3.77;;
8139;SDS011;4111;50.972;7.072;2022-12-20T08:48:26;3.57;;;3.27;;
8139;SDS011;4111;50.972;7.072;2022-12-20T08:50:53;4.10;;;3.70;;
8139;SDS011;4111;50.972;7.072;2022-12-20T08:53:21;5.83;;;3.77;;
8139;SDS011;4111;50.972;7.072;2022-12-20T08:55:47;7.43;;;3.93;;
8139;SDS011;4111;50.972;7.072;2022-12-20T08:58:13;5.30;;;4.77;;
8139;SDS011;4111;50.972;7.072;2022-12-20T09:00:41;5.77;;;4.40;;
8139;SDS011;4111;50.972;7.072;2022-12-20T09:03:08;5.47;;;4.13;;
8139;SDS011;4111;50.972;7.072;2022-12-20T09:05:42;5.50;;;3.60;;
8139;SDS011;4111;50.972;7.072;2022-12-20T09:08:10;3.77;;;3.47;;
8139;SDS011;4111;50.972;7.072;2022-12-20T09:10:36;6.47;;;3.37;;
8139;SDS011;4111;50.972;7.072;2022-12-20T09:13:02;5.70;;;3.60;;
8139;SDS011;4111;50.972;7.072;2022-12-20T09:15:29;3.73;;;3.40;;
8139;SDS011;4111;50.972;7.072;2022-12-20T09:17:56;3.40;;;3.10;;
8139;SDS011;4111;50.972;7.072;2022-12-20T09:20:23;4.47;;;3.10;;
8139;SDS011;4111;50.972;7.072;2022-12-20T09:22:50;6.80;;;3.33;;
8139;SDS011;4111;50.972;7.072;2022-12-20T09:25:17;5.33;;;2.73;;
8139;SDS011;4111;50.972;7.072;2022-12-20T09:27:43;3.47;;;3.00;;
8139;SDS011;4111;50.972;7.072;2022-12-20T09:30:10;3.20;;;3.00;;
8139;SDS011;4111;50.972;7.072;2022-12-20T09:32:36;4.53;;;2.73;;
8139;SDS011;4111;50.972;7.072;2022-12-20T09:35:03;4.70;;;2.97;;
8139;SDS011;4111;50.972;7.072;2022-12-20T09:37:30;3.93;;;3.10;;
8139;SDS011;4111;50.972;7.072;2022-12-20T09:39:57;3.47;;;3.07;;
8139;SDS011;4111;50.972;7.072;2022-12-20T09:42:25;4.37;;;3.43;;
8139;SDS011;4111;50.972;7.072;2022-12-20T09:44:55;5.53;;;3.50;;
8139;SDS011;4111;50.972;7.072;2022-12-20T09:47:31;3.87;;;3.57;;
8139;SDS011;4111;50.972;7.072;2022-12-20T09:50:01;3.90;;;3.50;;
8139;SDS011;4111;50.972;7.072;2022-12-20T09:52:52;4.43;;;3.30;;
8139;SDS011;4111;50.972;7.072;2022-12-20T09:58:18;5.03;;;3.87;;
8139;SDS011;4111;50.972;7.072;2022-12-20T10:00:48;4.47;;;3.33;;
8139;SDS011;4111;50.972;7.072;2022-12-20T10:03:25;7.33;;;5.30;;
8139;SDS011;4111;50.972;7.072;2022-12-20T10:05:59;6.13;;;4.00;;
8139;SDS011;4111;50.972;7.072;2022-12-20T10:08:44;3.50;;;3.20;;
8139;SDS011;4111;50.972;7.072;2022-12-20T10:11:32;5.60;;;3.43;;
8139;SDS011;4111;50.972;7.072;2022-12-20T10:17:34;2.83;;;2.60;;
8139;SDS011;4111;50.972;7.072;2022-12-20T10:25:29;4.20;;;3.80;;
8139;SDS011;4111;50.972;7.072;2022-12-20T10:27:57;4.17;;;3.53;;
8139;SDS011;4111;50.972;7.072;2022-12-20T10:30:28;3.80;;;2.70;;
8139;SDS011;4111;50.972;7.072;2022-12-20T10:32:55;5.53;;;3.00;;
8139;SDS011;4111;50.972;7.072;2022-12-20T10:35:27;8.20;;;2.87;;
8139;SDS011;4111;50.972;7.072;2022-12-20T10:38:06;3.33;;;2.63;;
8139;SDS011;4111;50.972;7.072;2022-12-20T10:40:44;4.97;;;3.70;;
8139;SDS011;4111;50.972;7.072;2022-12-20T10:43:48;3.97;;;2.67;;
8139;SDS011;4111;50.972;7.072;2022-12-20T10:46:18;3.40;;;3.10;;
8139;SDS011;4111;50.972;7.072;2022-12-20T10:48:45;4.73;;;2.73;;
8139;SDS011;4111;50.972;7.072;2022-12-20T10:51:14;4.57;;;2.80;;
8139;SDS011;4111;50.972;7.072;2022-12-20T10:53:57;5.17;;;3.00;;
8139;SDS011;4111;50.972;7.072;2022-12-20T10:56:30;4.47;;;3.00;;
8139;SDS011;4111;50.972;7.072;2022-12-20T11:01:42;5.50;;;3.33;;
8139;SDS011;4111;50.972;7.072;2022-12-20T11:04:27;5.13;;;3.07;;
8139;SDS011;4111;50.972;7.072;2022-12-20T11:06:57;4.73;;;2.87;;
8139;SDS011;4111;50.972;7.072;2022-12-20T11:15:06;7.60;;;5.03;;
8139;SDS011;4111;50.972;7.072;2022-12-20T11:17:42;3.87;;;2.53;;
8139;SDS011;4111;50.972;7.072;2022-12-20T11:20:28;4.07;;;2.20;;
8139;SDS011;4111;50.972;7.072;2022-12-20T11:23:04;3.10;;;2.33;;
8139;SDS011;4111;50.972;7.072;2022-12-20T11:30:59;3.20;;;2.30;;
8139;SDS011;4111;50.972;7.072;2022-12-20T11:41:58;4.17;;;2.63;;
8139;SDS011;4111;50.972;7.072;2022-12-20T11:44:56;3.53;;;2.77;;
8139;SDS011;4111;50.972;7.072;2022-12-20T11:47:43;3.47;;;2.60;;
8139;SDS011;4111;50.972;7.072;2022-12-20T11:50:57;3.40;;;2.60;;
8139;SDS011;4111;50.972;7.072;2022-12-20T11:56:13;3.93;;;2.70;;
8139;SDS011;4111;50.972;7.072;2022-12-20T11:58:49;2.60;;;2.43;;
8139;SDS011;4111;50.972;7.072;2022-12-20T12:01:25;5.73;;;3.33;;
8139;SDS011;4111;50.972;7.072;2022-12-20T12:04:02;4.63;;;3.10;;
8139;SDS011;4111;50.972;7.072;2022-12-20T12:06:36;6.17;;;2.90;;
8139;SDS011;4111;50.972;7.072;2022-12-20T12:09:27;3.90;;;2.83;;
8139;SDS011;4111;50.972;7.072;2022-12-20T12:12:09;3.63;;;2.37;;
8139;SDS011;4111;50.972;7.072;2022-12-20T12:14:47;4.37;;;3.40;;
8139;SDS011;4111;50.972;7.072;2022-12-20T12:17:23;2.70;;;2.50;;
8139;SDS011;4111;50.972;7.072;2022-12-20T12:20:03;5.63;;;2.97;;
8139;SDS011;4111;50.972;7.072;2022-12-20T12:22:44;4.13;;;3.27;;
8139;SDS011;4111;50.972;7.072;2022-12-20T12:25:14;5.70;;;3.77;;
8139;SDS011;4111;50.972;7.072;2022-12-20T12:27:43;4.83;;;2.80;;
8139;SDS011;4111;50.972;7.072;2022-12-20T12:32:59;6.70;;;4.80;;
8139;SDS011;4111;50.972;7.072;2022-12-20T12:41:30;6.83;;;5.03;;
8139;SDS011;4111;50.972;7.072;2022-12-20T12:44:22;8.03;;;5.33;;
8139;SDS011;4111;50.972;7.072;2022-12-20T12:47:05;5.47;;;4.57;;
8139;SDS011;4111;50.972;7.072;2022-12-20T12:49:38;4.40;;;4.00;;
8139;SDS011;4111;50.972;7.072;2022-12-20T12:52:06;4.57;;;3.33;;
8139;SDS011;4111;50.972;7.072;2022-12-20T12:54:36;5.53;;;3.93;;
8139;SDS011;4111;50.972;7.072;2022-12-20T12:57:09;5.53;;;4.07;;
8139;SDS011;4111;50.972;7.072;2022-12-20T12:59:39;6.43;;;5.40;;
8139;SDS011;4111;50.972;7.072;2022-12-20T13:09:59;4.70;;;4.30;;
8139;SDS011;4111;50.972;7.072;2022-12-20T13:20:22;5.47;;;4.43;;
8139;SDS011;4111;50.972;7.072;2022-12-20T13:25:34;5.10;;;4.60;;
8139;SDS011;4111;50.972;7.072;2022-12-20T13:30:45;8.47;;;4.60;;
8139;SDS011;4111;50.972;7.072;2022-12-20T13:35:53;8.57;;;4.90;;
8139;SDS011;4111;50.972;7.072;2022-12-20T13:38:35;8.03;;;5.83;;
8139;SDS011;4111;50.972;7.072;2022-12-20T13:41:16;10.17;;;5.50;;
8139;SDS011;4111;50.972;7.072;2022-12-20T13:49:47;7.83;;;4.17;;
8139;SDS011;4111;50.972;7.072;2022-12-20T13:52:19;8.07;;;4.40;;
8139;SDS011;4111;50.972;7.072;2022-12-20T13:54:58;7.37;;;4.50;;
8139;SDS011;4111;50.972;7.072;2022-12-20T13:57:30;6.00;;;4.10;;
8139;SDS011;4111;50.972;7.072;2022-12-20T14:00:11;8.00;;;4.70;;
8139;SDS011;4111;50.972;7.072;2022-12-20T14:02:41;5.43;;;4.37;;
8139;SDS011;4111;50.972;7.072;2022-12-20T14:05:13;5.33;;;4.60;;
8139;SDS011;4111;50.972;7.072;2022-12-20T14:07:54;7.97;;;4.67;;
8139;SDS011;4111;50.972;7.072;2022-12-20T14:10:26;6.20;;;4.57;;
8139;SDS011;4111;50.972;7.072;2022-12-20T14:12:54;6.07;;;5.00;;
8139;SDS011;4111;50.972;7.072;2022-12-20T14:17:47;7.83;;;5.50;;
8139;SDS011;4111;50.972;7.072;2022-12-20T14:20:14;7.60;;;4.97;;
8139;SDS011;4111;50.972;7.072;2022-12-20T14:22:53;10.43;;;5.43;;
8139;SDS011;4111;50.972;7.072;2022-12-20T14:25:49;8.27;;;4.37;;
8139;SDS011;4111;50.972;7.072;2022-12-20T14:30:55;5.77;;;4.17;;
8139;SDS011;4111;50.972;7.072;2022-12-20T14:33:25;6.83;;;4.40;;
8139;SDS011;4111;50.972;7.072;2022-12-20T14:35:55;4.20;;;3.53;;
8139;SDS011;4111;50.972;7.072;2022-12-20T14:38:23;4.87;;;4.07;;
8139;SDS011;4111;50.972;7.072;2022-12-20T14:40:55;5.17;;;4.10;;
8139;SDS011;4111;50.972;7.072;2022-12-20T14:43:26;6.10;;;4.10;;
8139;SDS011;4111;50.972;7.072;2022-12-20T14:48:44;5.53;;;4.00;;
8139;SDS011;4111;50.972;7.072;2022-12-20T14:51:12;4.77;;;3.60;;
8139;SDS011;4111;50.972;7.072;2022-12-20T14:53:46;5.67;;;4.00;;
8139;SDS011;4111;50.972;7.072;2022-12-20T14:56:16;6.93;;;4.10;;
8139;SDS011;4111;50.972;7.072;2022-12-20T14:59:03;7.43;;;4.53;;
8139;SDS011;4111;50.972;7.072;2022-12-20T15:01:38;9.83;;;4.10;;
8139;SDS011;4111;50.972;7.072;2022-12-20T15:04:19;5.97;;;4.10;;
8139;SDS011;4111;50.972;7.072;2022-12-20T15:06:48;6.93;;;4.30;;
8139;SDS011;4111;50.972;7.072;2022-12-20T15:09:15;6.20;;;3.67;;
8139;SDS011;4111;50.972;7.072;2022-12-20T15:11:42;4.87;;;2.93;;
8139;SDS011;4111;50.972;7.072;2022-12-20T15:17:03;3.77;;;2.80;;
8139;SDS011;4111;50.972;7.072;2022-12-20T15:19:34;3.17;;;2.67;;
8139;SDS011;4111;50.972;7.072;2022-12-20T15:22:14;4.67;;;2.70;;
8139;SDS011;4111;50.972;7.072;2022-12-20T15:24:44;4.73;;;2.87;;
8139;SDS011;4111;50.972;7.072;2022-12-20T15:27:13;7.67;;;3.23;;
8139;SDS011;4111;50.972;7.072;2022-12-20T15:29:40;3.27;;;3.00;;
8139;SDS011;4111;50.972;7.072;2022-12-20T15:32:24;7.93;;;3.27;;
8139;SDS011;4111;50.972;7.072;2022-12-20T15:34:54;3.80;;;3.03;;
8139;SDS011;4111;50.972;7.072;2022-12-20T15:37:21;6.37;;;3.20;;
8139;SDS011;4111;50.972;7.072;2022-12-20T15:39:47;5.03;;;3.70;;
8139;SDS011;4111;50.972;7.072;2022-12-20T15:42:14;6.60;;;3.43;;
8139;SDS011;4111;50.972;7.072;2022-12-20T15:44:43;7.13;;;3.50;;
8139;SDS011;4111;50.972;7.072;2022-12-20T15:47:11;6.27;;;3.77;;
8139;SDS011;4111;50.972;7.072;2022-12-20T15:49:38;6.90;;;4.63;;
8139;SDS011;4111;50.972;7.072;2022-12-20T15:52:18;6.90;;;3.90;;
8139;SDS011;4111;50.972;7.072;2022-12-20T15:54:46;10.20;;;4.37;;
8139;SDS011;4111;50.972;7.072;2022-12-20T15:57:13;4.30;;;3.90;;
8139;SDS011;4111;50.972;7.072;2022-12-20T15:59:40;7.73;;;3.90;;
8139;SDS011;4111;50.972;7.072;2022-12-20T16:02:27;4.07;;;3.40;;
8139;SDS011;4111;50.972;7.072;2022-12-20T16:04:55;6.77;;;4.00;;
8139;SDS011;4111;50.972;7.072;2022-12-20T16:07:22;4.53;;;3.70;;
8139;SDS011;4111;50.972;7.072;2022-12-20T16:09:49;9.17;;;4.03;;
8139;SDS011;4111;50.972;7.072;2022-12-20T16:12:33;6.97;;;3.87;;
8139;SDS011;4111;50.972;7.072;2022-12-20T16:15:01;3.80;;;3.43;;
8139;SDS011;4111;50.972;7.072;2022-12-20T16:17:27;7.70;;;3.73;;
8139;SDS011;4111;50.972;7.072;2022-12-20T16:19:54;6.73;;;3.83;;
8139;SDS011;4111;50.972;7.072;2022-12-20T16:22:21;4.57;;;3.60;;
8139;SDS011;4111;50.972;7.072;2022-12-20T16:24:49;6.40;;;3.47;;
8139;SDS011;4111;50.972;7.072;2022-12-20T16:27:16;6.73;;;4.27;;
8139;SDS011;4111;50.972;7.072;2022-12-20T16:29:43;10.23;;;4.97;;
8139;SDS011;4111;50.972;7.072;2022-12-20T16:32:14;6.30;;;4.43;;
8139;SDS011;4111;50.972;7.072;2022-12-20T16:34:44;5.80;;;3.70;;
8139;SDS011;4111;50.972;7.072;2022-12-20T16:37:11;5.20;;;3.67;;
8139;SDS011;4111;50.972;7.072;2022-12-20T16:39:39;6.23;;;3.60;;
8139;SDS011;4111;50.972;7.072;2022-12-20T16:42:15;7.97;;;3.90;;
8139;SDS011;4111;50.972;7.072;2022-12-20T16:44:43;4.17;;;3.77;;
8139;SDS011;4111;50.972;7.072;2022-12-20T16:47:11;4.30;;;3.27;;
8139;SDS011;4111;50.972;7.072;2022-12-20T16:49:39;3.50;;;3.20;;
8139;SDS011;4111;50.972;7.072;2022-12-20T16:52:15;3.17;;;2.83;;
8139;SDS011;4111;50.972;7.072;2022-12-20T16:54:43;6.53;;;4.50;;
8139;SDS011;4111;50.972;7.072;2022-12-20T16:57:10;4.00;;;3.60;;
8139;SDS011;4111;50.972;7.072;2022-12-20T16:59:37;5.43;;;3.80;;
8139;SDS011;4111;50.972;7.072;2022-12-20T17:02:04;5.33;;;4.00;;
8139;SDS011;4111;50.972;7.072;2022-12-20T17:04:47;4.57;;;3.30;;
8139;SDS011;4111;50.972;7.072;2022-12-20T17:07:13;7.20;;;3.93;;
8139;SDS011;4111;50.972;7.072;2022-12-20T17:09:40;4.00;;;3.37;;
8139;SDS011;4111;50.972;7.072;2022-12-20T17:12:12;4.47;;;3.50;;
8139;SDS011;4111;50.972;7.072;2022-12-20T17:14:48;5.23;;;3.73;;